sensor_id;sensor_type;location;lat;lon;timestamp;pressure;altitude;pressure_sealevel;temperature;humidity
20009;BME280;10165;42.662;23.260;2023-10-31T00:00:50;94335.56;;;18.35;43.58
20009;BME280;10165;42.662;23.260;2023-10-31T00:03:17;94334.41;;;18.46;43.24
20009;BME280;10165;42.662;23.260;2023-10-31T00:05:44;94336.34;;;18.39;43.20
20009;BME280;10165;42.662;23.260;2023-10-31T00:08:11;94343.25;;;18.40;43.40
20009;BME280;10165;42.662;23.260;2023-10-31T00:10:37;94331.69;;;18.22;43.95
20009;BME280;10165;42.662;23.260;2023-10-31T00:13:04;94334.03;;;18.16;44.03
20009;BME280;10165;42.662;23.260;2023-10-31T00:15:31;94330.16;;;18.28;43.68
20009;BME280;10165;42.662;23.260;2023-10-31T00:17:58;94318.56;;;18.34;43.37
20009;BME280;10165;42.662;23.260;2023-10-31T00:20:25;94319.72;;;18.33;43.70
20009;BME280;10165;42.662;23.260;2023-10-31T00:22:51;94317.41;;;18.39;43.62
20009;BME280;10165;42.662;23.260;2023-10-31T00:25:18;94326.69;;;18.20;43.98
20009;BME280;10165;42.662;23.260;2023-10-31T00:27:46;94320.50;;;18.16;43.77
20009;BME280;10165;42.662;23.260;2023-10-31T00:30:13;94317.78;;;17.84;44.70
20009;BME280;10165;42.662;23.260;2023-10-31T00:32:39;94323.84;;;17.46;45.45
20009;BME280;10165;42.662;23.260;2023-10-31T00:35:07;94313.16;;;17.88;44.52
20009;BME280;10165;42.662;23.260;2023-10-31T00:37:34;94306.19;;;17.66;44.88
20009;BME280;10165;42.662;23.260;2023-10-31T00:40:01;94309.31;;;17.93;44.45
20009;BME280;10165;42.662;23.260;2023-10-31T00:42:27;94308.91;;;17.84;44.44
20009;BME280;10165;42.662;23.260;2023-10-31T00:44:54;94312.78;;;18.04;43.88
20009;BME280;10165;42.662;23.260;2023-10-31T00:47:20;94303.03;;;17.50;45.31
20009;BME280;10165;42.662;23.260;2023-10-31T00:49:47;94308.47;;;17.71;44.97
20009;BME280;10165;42.662;23.260;2023-10-31T00:52:14;94313.34;;;17.12;45.90
20009;BME280;10165;42.662;23.260;2023-10-31T00:54:41;94308.88;;;16.62;47.35
20009;BME280;10165;42.662;23.260;2023-10-31T00:57:08;94301.41;;;17.17;46.22
20009;BME280;10165;42.662;23.260;2023-10-31T00:59:35;94298.38;;;17.40;45.92
20009;BME280;10165;42.662;23.260;2023-10-31T01:02:02;94295.00;;;17.78;44.97
20009;BME280;10165;42.662;23.260;2023-10-31T01:04:28;94301.97;;;17.93;44.72
20009;BME280;10165;42.662;23.260;2023-10-31T01:06:55;94292.22;;;17.39;45.41
20009;BME280;10165;42.662;23.260;2023-10-31T01:09:22;94286.69;;;17.04;46.32
20009;BME280;10165;42.662;23.260;2023-10-31T01:11:49;94287.44;;;16.94;46.92
20009;BME280;10165;42.662;23.260;2023-10-31T01:14:15;94284.84;;;17.33;46.12
20009;BME280;10165;42.662;23.260;2023-10-31T01:16:42;94288.31;;;17.26;45.78
20009;BME280;10165;42.662;23.260;2023-10-31T01:19:09;94285.66;;;17.44;45.58
20009;BME280;10165;42.662;23.260;2023-10-31T01:21:36;94283.53;;;16.81;46.83
20009;BME280;10165;42.662;23.260;2023-10-31T01:24:03;94290.50;;;16.92;47.06
20009;BME280;10165;42.662;23.260;2023-10-31T01:26:29;94283.66;;;17.19;46.18
20009;BME280;10165;42.662;23.260;2023-10-31T01:28:56;94274.44;;;17.31;46.15
20009;BME280;10165;42.662;23.260;2023-10-31T01:31:24;94266.72;;;17.33;45.93
20009;BME280;10165;42.662;23.260;2023-10-31T01:33:51;94269.78;;;17.21;45.87
20009;BME280;10165;42.662;23.260;2023-10-31T01:36:18;94270.56;;;17.25;45.83
20009;BME280;10165;42.662;23.260;2023-10-31T01:38:45;94262.88;;;17.45;45.42
20009;BME280;10165;42.662;23.260;2023-10-31T01:41:12;94270.22;;;17.41;45.46
20009;BME280;10165;42.662;23.260;2023-10-31T01:43:39;94269.84;;;17.56;45.28
20009;BME280;10165;42.662;23.260;2023-10-31T01:46:07;94273.78;;;17.70;44.93
20009;BME280;10165;42.662;23.260;2023-10-31T01:48:34;94269.09;;;17.59;45.33
20009;BME280;10165;42.662;23.260;2023-10-31T01:51:02;94267.16;;;17.49;45.33
20009;BME280;10165;42.662;23.260;2023-10-31T01:53:32;94267.13;;;17.39;45.71
20009;BME280;10165;42.662;23.260;2023-10-31T01:56:02;94262.16;;;17.55;45.65
20009;BME280;10165;42.662;23.260;2023-10-31T01:58:32;94266.03;;;17.57;45.45
20009;BME280;10165;42.662;23.260;2023-10-31T02:01:00;94259.47;;;17.58;45.34
20009;BME280;10165;42.662;23.260;2023-10-31T02:03:27;94257.56;;;17.59;45.55
20009;BME280;10165;42.662;23.260;2023-10-31T02:05:55;94252.50;;;17.54;45.71
20009;BME280;10165;42.662;23.260;2023-10-31T02:08:23;94254.84;;;17.73;45.57
20009;BME280;10165;42.662;23.260;2023-10-31T02:10:50;94248.31;;;17.74;45.53
20009;BME280;10165;42.662;23.260;2023-10-31T02:13:18;94247.53;;;17.74;45.51
20009;BME280;10165;42.662;23.260;2023-10-31T02:15:45;94249.84;;;17.86;45.16
20009;BME280;10165;42.662;23.260;2023-10-31T02:18:12;94249.06;;;17.60;45.76
20009;BME280;10165;42.662;23.260;2023-10-31T02:20:39;94245.97;;;17.69;45.68
20009;BME280;10165;42.662;23.260;2023-10-31T02:23:06;94242.78;;;17.21;46.54
20009;BME280;10165;42.662;23.260;2023-10-31T02:25:33;94243.59;;;17.36;46.38
20009;BME280;10165;42.662;23.260;2023-10-31T02:28:00;94238.97;;;17.43;46.09
20009;BME280;10165;42.662;23.260;2023-10-31T02:30:30;94239.75;;;17.54;45.97
20009;BME280;10165;42.662;23.260;2023-10-31T02:32:57;94244.38;;;17.47;45.77
20009;BME280;10165;42.662;23.260;2023-10-31T02:35:24;94238.19;;;17.36;46.27
20009;BME280;10165;42.662;23.260;2023-10-31T02:37:50;94233.94;;;17.28;46.24
20009;BME280;10165;42.662;23.260;2023-10-31T02:40:17;94242.72;;;16.89;47.45
20009;BME280;10165;42.662;23.260;2023-10-31T02:42:44;94240.84;;;17.14;46.96
20009;BME280;10165;42.662;23.260;2023-10-31T02:45:11;94239.72;;;17.26;46.80
20009;BME280;10165;42.662;23.260;2023-10-31T02:47:38;94237.34;;;17.00;47.20
20009;BME280;10165;42.662;23.260;2023-10-31T02:50:05;94245.41;;;16.86;48.04
20009;BME280;10165;42.662;23.260;2023-10-31T02:52:32;94241.19;;;16.99;47.75
20009;BME280;10165;42.662;23.260;2023-10-31T02:54:59;94239.69;;;17.05;47.52
20009;BME280;10165;42.662;23.260;2023-10-31T02:57:26;94244.72;;;17.17;47.36
20009;BME280;10165;42.662;23.260;2023-10-31T02:59:53;94239.34;;;17.24;47.04
20009;BME280;10165;42.662;23.260;2023-10-31T03:02:19;94234.38;;;17.47;46.56
20009;BME280;10165;42.662;23.260;2023-10-31T03:04:46;94241.28;;;17.52;46.19
20009;BME280;10165;42.662;23.260;2023-10-31T03:07:13;94238.22;;;17.46;46.42
20009;BME280;10165;42.662;23.260;2023-10-31T03:09:40;94239.75;;;17.44;46.47
20009;BME280;10165;42.662;23.260;2023-10-31T03:12:07;94242.47;;;17.54;46.29
20009;BME280;10165;42.662;23.260;2023-10-31T03:14:33;94238.63;;;17.55;45.99
20009;BME280;10165;42.662;23.260;2023-10-31T03:17:00;94239.03;;;17.57;46.21
20009;BME280;10165;42.662;23.260;2023-10-31T03:19:27;94224.72;;;17.50;46.18
20009;BME280;10165;42.662;23.260;2023-10-31T03:21:54;94227.00;;;17.44;46.47
20009;BME280;10165;42.662;23.260;2023-10-31T03:24:20;94222.50;;;16.55;48.17
20009;BME280;10165;42.662;23.260;2023-10-31T03:26:47;94216.69;;;16.49;48.57
20009;BME280;10165;42.662;23.260;2023-10-31T03:29:14;94218.59;;;16.45;48.43
20009;BME280;10165;42.662;23.260;2023-10-31T03:31:41;94220.06;;;16.25;48.73
20009;BME280;10165;42.662;23.260;2023-10-31T03:34:08;94210.91;;;16.47;48.40
20009;BME280;10165;42.662;23.260;2023-10-31T03:36:35;94209.38;;;16.46;47.92
20009;BME280;10165;42.662;23.260;2023-10-31T03:39:01;94222.09;;;15.88;49.39
20009;BME280;10165;42.662;23.260;2023-10-31T03:41:28;94213.50;;;15.68;50.42
20009;BME280;10165;42.662;23.260;2023-10-31T03:43:55;94211.38;;;15.44;51.36
20009;BME280;10165;42.662;23.260;2023-10-31T03:46:22;94223.66;;;15.89;50.13
20009;BME280;10165;42.662;23.260;2023-10-31T03:48:49;94230.44;;;16.26;49.21
20009;BME280;10165;42.662;23.260;2023-10-31T03:51:16;94228.47;;;16.20;49.38
20009;BME280;10165;42.662;23.260;2023-10-31T03:53:43;94230.34;;;16.09;49.44
20009;BME280;10165;42.662;23.260;2023-10-31T03:56:09;94229.50;;;15.98;49.46
20009;BME280;10165;42.662;23.260;2023-10-31T03:58:37;94218.47;;;16.17;49.00
20009;BME280;10165;42.662;23.260;2023-10-31T04:01:03;94215.88;;;16.42;48.53
20009;BME280;10165;42.662;23.260;2023-10-31T04:03:30;94215.13;;;16.48;48.23
20009;BME280;10165;42.662;23.260;2023-10-31T04:05:57;94232.25;;;16.08;48.92
20009;BME280;10165;42.662;23.260;2023-10-31T04:08:23;94225.56;;;15.88;49.79
20009;BME280;10165;42.662;23.260;2023-10-31T04:10:50;94216.03;;;15.98;49.85
20009;BME280;10165;42.662;23.260;2023-10-31T04:13:19;94213.75;;;16.07;49.59
20009;BME280;10165;42.662;23.260;2023-10-31T04:15:45;94213.91;;;16.28;48.91
20009;BME280;10165;42.662;23.260;2023-10-31T04:18:12;94207.75;;;16.31;48.74
20009;BME280;10165;42.662;23.260;2023-10-31T04:20:39;94201.34;;;16.60;47.91
20009;BME280;10165;42.662;23.260;2023-10-31T04:23:06;94194.75;;;16.54;48.18
20009;BME280;10165;42.662;23.260;2023-10-31T04:25:33;94193.19;;;16.46;48.37
20009;BME280;10165;42.662;23.260;2023-10-31T04:27:59;94196.56;;;16.29;48.46
20009;BME280;10165;42.662;23.260;2023-10-31T04:30:27;94197.22;;;16.08;48.80
20009;BME280;10165;42.662;23.260;2023-10-31T04:32:55;94202.94;;;15.96;49.28
20009;BME280;10165;42.662;23.260;2023-10-31T04:35:22;94201.94;;;16.29;48.64
20009;BME280;10165;42.662;23.260;2023-10-31T04:37:55;94185.84;;;16.40;48.36
20009;BME280;10165;42.662;23.260;2023-10-31T04:40:23;94190.44;;;16.32;48.71
20009;BME280;10165;42.662;23.260;2023-10-31T04:42:50;94198.56;;;16.46;48.35
20009;BME280;10165;42.662;23.260;2023-10-31T04:45:17;94192.34;;;16.28;48.59
20009;BME280;10165;42.662;23.260;2023-10-31T04:47:43;94203.91;;;16.32;48.28
20009;BME280;10165;42.662;23.260;2023-10-31T04:50:10;94207.03;;;16.41;47.96
20009;BME280;10165;42.662;23.260;2023-10-31T04:52:37;94210.94;;;15.86;49.13
20009;BME280;10165;42.662;23.260;2023-10-31T04:55:04;94218.34;;;15.99;48.63
20009;BME280;10165;42.662;23.260;2023-10-31T04:57:31;94225.47;;;16.29;48.19
20009;BME280;10165;42.662;23.260;2023-10-31T04:59:58;94228.97;;;16.40;47.95
20009;BME280;10165;42.662;23.260;2023-10-31T05:02:26;94216.91;;;16.12;48.85
20009;BME280;10165;42.662;23.260;2023-10-31T05:04:54;94209.97;;;16.15;48.44
20009;BME280;10165;42.662;23.260;2023-10-31T05:07:20;94219.53;;;16.02;49.12
20009;BME280;10165;42.662;23.260;2023-10-31T05:09:48;94209.59;;;14.18;54.35
20009;BME280;10165;42.662;23.260;2023-10-31T05:12:20;94213.44;;;15.17;51.43
20009;BME280;10165;42.662;23.260;2023-10-31T05:14:48;94224.84;;;15.47;50.63
20009;BME280;10165;42.662;23.260;2023-10-31T05:17:14;94224.00;;;15.36;50.72
20009;BME280;10165;42.662;23.260;2023-10-31T05:19:41;94224.56;;;15.56;50.59
20009;BME280;10165;42.662;23.260;2023-10-31T05:22:08;94222.75;;;15.70;49.96
20009;BME280;10165;42.662;23.260;2023-10-31T05:24:36;94227.06;;;15.78;49.90
20009;BME280;10165;42.662;23.260;2023-10-31T05:27:03;94234.59;;;15.22;50.61
20009;BME280;10165;42.662;23.260;2023-10-31T05:29:30;94228.25;;;15.00;51.35
20009;BME280;10165;42.662;23.260;2023-10-31T05:31:57;94232.06;;;15.36;50.74
20009;BME280;10165;42.662;23.260;2023-10-31T05:34:23;94238.03;;;15.19;51.23
20009;BME280;10165;42.662;23.260;2023-10-31T05:36:54;94239.06;;;15.44;50.62
20009;BME280;10165;42.662;23.260;2023-10-31T05:39:32;94236.19;;;15.63;50.12
20009;BME280;10165;42.662;23.260;2023-10-31T05:42:04;94226.34;;;15.85;49.63
20009;BME280;10165;42.662;23.260;2023-10-31T05:44:31;94217.47;;;15.85;49.78
20009;BME280;10165;42.662;23.260;2023-10-31T05:46:58;94236.22;;;15.30;51.61
20009;BME280;10165;42.662;23.260;2023-10-31T05:49:25;94243.66;;;15.44;50.91
20009;BME280;10165;42.662;23.260;2023-10-31T05:51:52;94253.19;;;15.34;50.94
20009;BME280;10165;42.662;23.260;2023-10-31T05:54:19;94257.09;;;15.03;51.69
20009;BME280;10165;42.662;23.260;2023-10-31T05:56:46;94254.59;;;14.88;52.12
20009;BME280;10165;42.662;23.260;2023-10-31T05:59:13;94252.97;;;15.50;51.33
20009;BME280;10165;42.662;23.260;2023-10-31T06:01:40;94265.84;;;15.70;50.75
20009;BME280;10165;42.662;23.260;2023-10-31T06:04:07;94266.19;;;14.58;53.45
20009;BME280;10165;42.662;23.260;2023-10-31T06:06:37;94269.16;;;15.16;52.49
20009;BME280;10165;42.662;23.260;2023-10-31T06:09:04;94270.59;;;15.44;51.74
20009;BME280;10165;42.662;23.260;2023-10-31T06:11:31;94272.53;;;15.47;51.61
20009;BME280;10165;42.662;23.260;2023-10-31T06:13:59;94274.88;;;15.48;51.99
20009;BME280;10165;42.662;23.260;2023-10-31T06:16:26;94275.13;;;15.76;51.49
20009;BME280;10165;42.662;23.260;2023-10-31T06:18:53;94263.19;;;15.37;52.22
20009;BME280;10165;42.662;23.260;2023-10-31T06:21:20;94252.91;;;15.87;51.50
20009;BME280;10165;42.662;23.260;2023-10-31T06:23:46;94269.53;;;15.99;51.05
20009;BME280;10165;42.662;23.260;2023-10-31T06:26:13;94271.53;;;16.06;51.14
20009;BME280;10165;42.662;23.260;2023-10-31T06:28:40;94265.44;;;16.19;50.95
20009;BME280;10165;42.662;23.260;2023-10-31T06:31:23;94267.53;;;16.44;50.69
20009;BME280;10165;42.662;23.260;2023-10-31T06:33:50;94275.72;;;16.61;50.21
20009;BME280;10165;42.662;23.260;2023-10-31T06:36:16;94270.47;;;16.90;49.82
20009;BME280;10165;42.662;23.260;2023-10-31T06:38:43;94269.38;;;17.05;49.48
20009;BME280;10165;42.662;23.260;2023-10-31T06:41:13;94250.03;;;16.96;49.83
20009;BME280;10165;42.662;23.260;2023-10-31T06:43:40;94250.88;;;17.14;49.55
20009;BME280;10165;42.662;23.260;2023-10-31T06:46:07;94252.06;;;17.27;49.24
20009;BME280;10165;42.662;23.260;2023-10-31T06:48:34;94258.09;;;16.78;49.96
20009;BME280;10165;42.662;23.260;2023-10-31T06:51:00;94253.38;;;16.61;50.80
20009;BME280;10165;42.662;23.260;2023-10-31T06:53:27;94245.88;;;17.16;49.96
20009;BME280;10165;42.662;23.260;2023-10-31T06:55:54;94255.81;;;16.91;50.16
20009;BME280;10165;42.662;23.260;2023-10-31T06:58:21;94261.72;;;17.28;49.81
20009;BME280;10165;42.662;23.260;2023-10-31T07:00:47;94260.53;;;17.22;49.64
20009;BME280;10165;42.662;23.260;2023-10-31T07:03:14;94249.38;;;17.41;49.63
20009;BME280;10165;42.662;23.260;2023-10-31T07:05:42;94247.47;;;17.52;49.04
20009;BME280;10165;42.662;23.260;2023-10-31T07:08:09;94253.28;;;17.54;48.87
20009;BME280;10165;42.662;23.260;2023-10-31T07:10:36;94260.31;;;16.58;51.12
20009;BME280;10165;42.662;23.260;2023-10-31T07:13:03;94242.41;;;17.19;50.08
20009;BME280;10165;42.662;23.260;2023-10-31T07:15:29;94244.81;;;17.63;49.05
20009;BME280;10165;42.662;23.260;2023-10-31T07:17:56;94245.97;;;17.83;48.58
20009;BME280;10165;42.662;23.260;2023-10-31T07:20:23;94252.16;;;17.77;48.65
20009;BME280;10165;42.662;23.260;2023-10-31T07:22:50;94250.22;;;17.66;48.76
20009;BME280;10165;42.662;23.260;2023-10-31T07:25:16;94245.19;;;18.00;48.17
20009;BME280;10165;42.662;23.260;2023-10-31T07:27:43;94237.06;;;18.22;47.71
20009;BME280;10165;42.662;23.260;2023-10-31T07:30:10;94239.41;;;17.63;49.01
20009;BME280;10165;42.662;23.260;2023-10-31T07:32:37;94242.91;;;17.78;48.86
20009;BME280;10165;42.662;23.260;2023-10-31T07:35:04;94227.81;;;18.08;48.04
20009;BME280;10165;42.662;23.260;2023-10-31T07:37:31;94239.03;;;17.57;49.05
20009;BME280;10165;42.662;23.260;2023-10-31T07:40:02;94237.44;;;17.56;48.72
20009;BME280;10165;42.662;23.260;2023-10-31T07:42:30;94243.50;;;17.00;50.74
20009;BME280;10165;42.662;23.260;2023-10-31T07:44:57;94220.09;;;17.79;48.98
20009;BME280;10165;42.662;23.260;2023-10-31T07:47:24;94219.69;;;18.12;48.80
20009;BME280;10165;42.662;23.260;2023-10-31T07:49:51;94225.13;;;17.55;48.78
20009;BME280;10165;42.662;23.260;2023-10-31T07:52:20;94225.91;;;17.70;49.30
20009;BME280;10165;42.662;23.260;2023-10-31T07:54:46;94216.59;;;18.06;48.52
20009;BME280;10165;42.662;23.260;2023-10-31T07:57:13;94211.59;;;18.05;48.57
20009;BME280;10165;42.662;23.260;2023-10-31T07:59:40;94207.75;;;17.92;48.52
20009;BME280;10165;42.662;23.260;2023-10-31T08:02:07;94205.38;;;18.19;48.50
20009;BME280;10165;42.662;23.260;2023-10-31T08:04:33;94199.91;;;18.57;47.29
20009;BME280;10165;42.662;23.260;2023-10-31T08:07:00;94194.06;;;18.70;47.02
20009;BME280;10165;42.662;23.260;2023-10-31T08:09:27;94197.97;;;18.51;47.73
20009;BME280;10165;42.662;23.260;2023-10-31T08:11:54;94206.09;;;18.51;47.24
20009;BME280;10165;42.662;23.260;2023-10-31T08:14:20;94201.00;;;18.78;47.04
20009;BME280;10165;42.662;23.260;2023-10-31T08:16:51;94186.81;;;19.22;45.71
20009;BME280;10165;42.662;23.260;2023-10-31T08:19:18;94198.41;;;19.22;45.67
20009;BME280;10165;42.662;23.260;2023-10-31T08:21:45;94186.44;;;19.23;46.04
20009;BME280;10165;42.662;23.260;2023-10-31T08:24:11;94177.50;;;19.26;45.96
20009;BME280;10165;42.662;23.260;2023-10-31T08:26:39;94178.34;;;19.16;46.83
20009;BME280;10165;42.662;23.260;2023-10-31T08:29:06;94167.34;;;19.44;46.10
20009;BME280;10165;42.662;23.260;2023-10-31T08:31:33;94165.13;;;19.25;46.85
20009;BME280;10165;42.662;23.260;2023-10-31T08:34:00;94153.19;;;19.19;47.19
20009;BME280;10165;42.662;23.260;2023-10-31T08:36:28;94158.47;;;19.37;47.14
20009;BME280;10165;42.662;23.260;2023-10-31T08:38:55;94148.28;;;19.55;46.73
20009;BME280;10165;42.662;23.260;2023-10-31T08:41:22;94145.72;;;19.82;46.03
20009;BME280;10165;42.662;23.260;2023-10-31T08:43:49;94149.41;;;20.02;45.71
20009;BME280;10165;42.662;23.260;2023-10-31T08:46:16;94138.13;;;20.07;45.23
20009;BME280;10165;42.662;23.260;2023-10-31T08:48:43;94132.13;;;19.89;45.14
20009;BME280;10165;42.662;23.260;2023-10-31T08:51:10;94119.69;;;20.29;44.88
20009;BME280;10165;42.662;23.260;2023-10-31T08:53:36;94122.16;;;19.31;46.25
20009;BME280;10165;42.662;23.260;2023-10-31T08:56:03;94119.31;;;19.93;45.11
20009;BME280;10165;42.662;23.260;2023-10-31T08:58:30;94118.97;;;19.46;45.11
20009;BME280;10165;42.662;23.260;2023-10-31T09:00:57;94121.53;;;19.61;45.05
20009;BME280;10165;42.662;23.260;2023-10-31T09:03:23;94114.22;;;19.95;44.42
20009;BME280;10165;42.662;23.260;2023-10-31T09:05:50;94104.59;;;20.24;43.48
20009;BME280;10165;42.662;23.260;2023-10-31T09:08:17;94101.63;;;20.49;42.79
20009;BME280;10165;42.662;23.260;2023-10-31T09:10:44;94094.94;;;20.57;42.65
20009;BME280;10165;42.662;23.260;2023-10-31T09:13:13;94091.66;;;20.42;42.41
20009;BME280;10165;42.662;23.260;2023-10-31T09:15:40;94089.31;;;20.71;41.04
20009;BME280;10165;42.662;23.260;2023-10-31T09:18:08;94082.50;;;20.86;40.93
20009;BME280;10165;42.662;23.260;2023-10-31T09:20:34;94082.72;;;20.99;40.36
20009;BME280;10165;42.662;23.260;2023-10-31T09:23:01;94081.19;;;20.98;40.39
20009;BME280;10165;42.662;23.260;2023-10-31T09:25:28;94066.28;;;20.83;41.01
20009;BME280;10165;42.662;23.260;2023-10-31T09:27:57;94063.41;;;20.93;40.67
20009;BME280;10165;42.662;23.260;2023-10-31T09:30:25;94073.44;;;20.05;41.96
20009;BME280;10165;42.662;23.260;2023-10-31T09:32:52;94059.75;;;20.16;41.50
20009;BME280;10165;42.662;23.260;2023-10-31T09:35:19;94058.56;;;20.78;40.87
20009;BME280;10165;42.662;23.260;2023-10-31T09:37:46;94050.19;;;20.42;41.14
20009;BME280;10165;42.662;23.260;2023-10-31T09:40:15;94045.44;;;20.76;40.87
20009;BME280;10165;42.662;23.260;2023-10-31T09:42:44;94046.75;;;20.65;41.12
20009;BME280;10165;42.662;23.260;2023-10-31T09:45:11;94039.00;;;21.17;40.09
20009;BME280;10165;42.662;23.260;2023-10-31T09:47:39;94025.31;;;20.97;40.21
20009;BME280;10165;42.662;23.260;2023-10-31T09:50:07;94032.91;;;20.82;40.13
20009;BME280;10165;42.662;23.260;2023-10-31T09:52:36;94024.72;;;20.86;40.69
20009;BME280;10165;42.662;23.260;2023-10-31T09:55:03;94024.44;;;20.54;41.00
20009;BME280;10165;42.662;23.260;2023-10-31T09:57:31;94016.19;;;21.11;39.73
20009;BME280;10165;42.662;23.260;2023-10-31T09:59:58;94009.66;;;21.31;39.42
20009;BME280;10165;42.662;23.260;2023-10-31T10:02:25;94004.16;;;21.35;39.36
20009;BME280;10165;42.662;23.260;2023-10-31T10:04:52;93986.78;;;21.72;38.88
20009;BME280;10165;42.662;23.260;2023-10-31T10:07:19;93982.19;;;21.69;38.95
20009;BME280;10165;42.662;23.260;2023-10-31T10:09:46;93990.34;;;21.49;38.87
20009;BME280;10165;42.662;23.260;2023-10-31T10:12:14;93980.00;;;21.17;39.03
20009;BME280;10165;42.662;23.260;2023-10-31T10:14:41;93974.03;;;21.69;38.55
20009;BME280;10165;42.662;23.260;2023-10-31T10:17:17;93974.84;;;21.46;38.74
20009;BME280;10165;42.662;23.260;2023-10-31T10:19:47;93969.91;;;21.18;38.33
20009;BME280;10165;42.662;23.260;2023-10-31T10:22:13;93958.63;;;21.62;37.63
20009;BME280;10165;42.662;23.260;2023-10-31T10:24:41;93953.94;;;21.43;37.84
20009;BME280;10165;42.662;23.260;2023-10-31T10:27:08;93959.94;;;21.74;37.99
20009;BME280;10165;42.662;23.260;2023-10-31T10:29:37;93963.66;;;22.39;37.24
20009;BME280;10165;42.662;23.260;2023-10-31T10:32:05;93954.50;;;22.49;37.07
20009;BME280;10165;42.662;23.260;2023-10-31T10:34:35;93952.78;;;21.83;37.66
20009;BME280;10165;42.662;23.260;2023-10-31T10:37:05;93941.19;;;21.79;37.56
20009;BME280;10165;42.662;23.260;2023-10-31T10:39:33;93934.13;;;22.21;37.12
20009;BME280;10165;42.662;23.260;2023-10-31T10:42:01;93933.91;;;21.96;37.57
20009;BME280;10165;42.662;23.260;2023-10-31T10:44:34;93915.56;;;22.16;37.18
20009;BME280;10165;42.662;23.260;2023-10-31T10:47:06;93908.38;;;22.58;36.12
20009;BME280;10165;42.662;23.260;2023-10-31T10:49:35;93905.81;;;22.19;36.96
20009;BME280;10165;42.662;23.260;2023-10-31T10:54:37;93894.22;;;23.12;36.20
20009;BME280;10165;42.662;23.260;2023-10-31T10:57:20;93890.56;;;23.18;35.33
20009;BME280;10165;42.662;23.260;2023-10-31T10:59:49;93900.25;;;23.19;35.57
20009;BME280;10165;42.662;23.260;2023-10-31T11:02:18;93892.66;;;22.66;35.38
20009;BME280;10165;42.662;23.260;2023-10-31T11:04:47;93902.88;;;22.78;34.84
20009;BME280;10165;42.662;23.260;2023-10-31T11:07:16;93901.34;;;22.77;35.21
20009;BME280;10165;42.662;23.260;2023-10-31T11:09:45;93893.25;;;22.57;34.98
20009;BME280;10165;42.662;23.260;2023-10-31T11:12:12;93879.66;;;22.73;34.87
20009;BME280;10165;42.662;23.260;2023-10-31T11:14:40;93885.66;;;23.13;34.27
20009;BME280;10165;42.662;23.260;2023-10-31T11:17:38;93881.16;;;23.35;33.14
20009;BME280;10165;42.662;23.260;2023-10-31T11:20:09;93877.06;;;23.44;33.51
20009;BME280;10165;42.662;23.260;2023-10-31T11:22:41;93868.34;;;22.75;34.13
20009;BME280;10165;42.662;23.260;2023-10-31T11:25:12;93858.78;;;22.67;33.99
20009;BME280;10165;42.662;23.260;2023-10-31T11:27:51;93861.81;;;23.01;33.58
20009;BME280;10165;42.662;23.260;2023-10-31T11:32:54;93844.00;;;22.68;33.96
20009;BME280;10165;42.662;23.260;2023-10-31T11:35:22;93840.59;;;23.38;33.09
20009;BME280;10165;42.662;23.260;2023-10-31T11:38:12;93839.19;;;23.74;32.45
20009;BME280;10165;42.662;23.260;2023-10-31T11:41:01;93836.91;;;23.15;32.72
20009;BME280;10165;42.662;23.260;2023-10-31T11:43:59;93827.13;;;23.47;32.85
20009;BME280;10165;42.662;23.260;2023-10-31T11:46:24;93833.28;;;23.06;32.50
20009;BME280;10165;42.662;23.260;2023-10-31T11:48:56;93837.16;;;22.92;31.38
20009;BME280;10165;42.662;23.260;2023-10-31T11:51:24;93821.13;;;23.10;31.24
20009;BME280;10165;42.662;23.260;2023-10-31T11:53:51;93827.31;;;22.82;31.67
20009;BME280;10165;42.662;23.260;2023-10-31T11:56:20;93817.09;;;22.86;31.38
20009;BME280;10165;42.662;23.260;2023-10-31T11:59:16;93821.06;;;23.39;30.87
20009;BME280;10165;42.662;23.260;2023-10-31T12:01:46;93818.91;;;23.34;31.13
20009;BME280;10165;42.662;23.260;2023-10-31T12:04:23;93811.63;;;23.44;31.37
20009;BME280;10165;42.662;23.260;2023-10-31T12:06:58;93807.03;;;23.41;30.17
20009;BME280;10165;42.662;23.260;2023-10-31T12:09:25;93794.19;;;23.54;29.79
20009;BME280;10165;42.662;23.260;2023-10-31T12:11:51;93800.97;;;23.62;29.37
20009;BME280;10165;42.662;23.260;2023-10-31T12:14:18;93799.75;;;23.50;29.39
20009;BME280;10165;42.662;23.260;2023-10-31T12:16:47;93804.28;;;23.82;28.65
20009;BME280;10165;42.662;23.260;2023-10-31T12:19:14;93794.78;;;23.87;28.95
20009;BME280;10165;42.662;23.260;2023-10-31T12:21:45;93802.63;;;24.10;28.69
20009;BME280;10165;42.662;23.260;2023-10-31T12:24:15;93797.75;;;24.17;28.83
20009;BME280;10165;42.662;23.260;2023-10-31T12:26:43;93786.38;;;24.19;28.94
20009;BME280;10165;42.662;23.260;2023-10-31T12:29:16;93776.88;;;24.11;28.24
20009;BME280;10165;42.662;23.260;2023-10-31T12:31:45;93778.06;;;23.97;27.83
20009;BME280;10165;42.662;23.260;2023-10-31T12:34:16;93773.53;;;23.40;27.97
20009;BME280;10165;42.662;23.260;2023-10-31T12:36:44;93764.13;;;23.95;28.86
20009;BME280;10165;42.662;23.260;2023-10-31T12:39:12;93765.09;;;24.01;28.66
20009;BME280;10165;42.662;23.260;2023-10-31T12:41:40;93757.47;;;23.84;28.36
20009;BME280;10165;42.662;23.260;2023-10-31T12:44:08;93751.78;;;23.78;28.90
20009;BME280;10165;42.662;23.260;2023-10-31T12:46:41;93748.19;;;24.06;29.03
20009;BME280;10165;42.662;23.260;2023-10-31T12:49:12;93750.44;;;24.08;29.08
20009;BME280;10165;42.662;23.260;2023-10-31T12:51:58;93746.00;;;24.01;29.58
20009;BME280;10165;42.662;23.260;2023-10-31T12:54:30;93748.94;;;24.07;29.62
20009;BME280;10165;42.662;23.260;2023-10-31T12:57:04;93746.22;;;23.94;28.58
20009;BME280;10165;42.662;23.260;2023-10-31T12:59:32;93750.78;;;23.97;28.66